FDX7 GVAC-SBBR
Flight info
| Callsign | FDX7 |
|---|---|
| Flight time | N/A |
| Altitude | 30000 |
| Route | DISDA1A BULVO DCT POMAT UN873 INTOL/N0490F320 UN873 VUNOK DCT OPVAR UZ94 VADOP |
| Aircraft | B77L/H-SDE1E2E3FGHIJ2J3J4J5M1P1P2P3RWXYZ/LB1D1 |
Departure
| Time | 2026-04-29 16:37 |
|---|---|
| Airport | Amílcar Cabral International Airport (GVAC) |
Arrival
| Time | N/A |
|---|---|
| Airport | Presidente Juscelino Kubitschek International Airport (SBBR) |
| Time | Latitude | Longitude | Altitude | Speed | Heading |
|---|---|---|---|---|---|
| 2026-04-29 16:20 | 16.73300 | -22.94503 | 204 ft | 0 kts | 90° |
| 2026-04-29 16:24 | 16.73300 | -22.94520 | 211 ft | 2 kts | 91° |
| 2026-04-29 16:25 | 16.73301 | -22.94537 | 201 ft | 2 kts | 93° |
| 2026-04-29 16:25 | 16.73302 | -22.94554 | 206 ft | 2 kts | 97° |
| 2026-04-29 16:25 | 16.73305 | -22.94571 | 209 ft | 2 kts | 106° |
| 2026-04-29 16:25 | 16.73311 | -22.94587 | 209 ft | 2 kts | 134° |
| 2026-04-29 16:26 | 16.73323 | -22.94596 | 209 ft | 2 kts | 176° |
| 2026-04-29 16:26 | 16.73330 | -22.94596 | 209 ft | 0 kts | 181° |
| 2026-04-29 16:29 | 16.73304 | -22.94595 | 209 ft | 11 kts | 178° |
| 2026-04-29 16:30 | 16.73206 | -22.94592 | 195 ft | 14 kts | 178° |
| 2026-04-29 16:30 | 16.73086 | -22.94614 | 206 ft | 14 kts | 220° |
| 2026-04-29 16:30 | 16.73056 | -22.94652 | 203 ft | 4 kts | 232° |
| 2026-04-29 16:30 | 16.73006 | -22.94696 | 205 ft | 10 kts | 187° |
| 2026-04-29 16:31 | 16.72916 | -22.94691 | 196 ft | 24 kts | 177° |
| 2026-04-29 16:31 | 16.72753 | -22.94688 | 194 ft | 28 kts | 180° |
| 2026-04-29 16:31 | 16.72592 | -22.94687 | 207 ft | 16 kts | 180° |
| 2026-04-29 16:31 | 16.72545 | -22.94687 | 204 ft | 10 kts | 180° |
| 2026-04-29 16:32 | 16.72459 | -22.94687 | 209 ft | 15 kts | 179° |
| 2026-04-29 16:32 | 16.72448 | -22.94687 | 207 ft | 0 kts | 179° |
| 2026-04-29 16:32 | 16.72414 | -22.94701 | 207 ft | 8 kts | 221° |
| 2026-04-29 16:33 | 16.72406 | -22.94768 | 199 ft | 0 kts | 272° |
| 2026-04-29 16:34 | 16.72407 | -22.94782 | 196 ft | 9 kts | 272° |
| 2026-04-29 16:34 | 16.72412 | -22.94856 | 196 ft | 6 kts | 289° |
| 2026-04-29 16:34 | 16.72456 | -22.94886 | 206 ft | 8 kts | 352° |
| 2026-04-29 16:35 | 16.72462 | -22.94887 | 205 ft | 0 kts | 357° |
| 2026-04-29 16:36 | 16.72599 | -22.94890 | 203 ft | 54 kts | 359° |
| 2026-04-29 16:36 | 16.73231 | -22.94893 | 204 ft | 126 kts | 359° |
| 2026-04-29 16:36 | 16.74175 | -22.94911 | 195 ft | 177 kts | 2° |
| 2026-04-29 16:37 | 16.75459 | -22.94903 | 677 ft | 183 kts | 2° |
| 2026-04-29 16:37 | 16.76703 | -22.94917 | 1531 ft | 177 kts | 359° |
| 2026-04-29 16:37 | 16.78002 | -22.94940 | 1783 ft | 197 kts | 360° |
| 2026-04-29 16:37 | 16.78959 | -22.94957 | 1922 ft | 211 kts | 360° |
| 2026-04-29 16:38 | 16.81009 | -22.94988 | 2417 ft | 230 kts | 359° |
| 2026-04-29 16:38 | 16.82636 | -22.95012 | 2968 ft | 239 kts | 359° |
| 2026-04-29 16:38 | 16.84324 | -22.94935 | 3490 ft | 247 kts | 13° |
| 2026-04-29 16:38 | 16.85864 | -22.94061 | 3894 ft | 263 kts | 43° |
| 2026-04-29 16:39 | 16.86888 | -22.92399 | 4370 ft | 278 kts | 70° |
| 2026-04-29 16:39 | 16.87265 | -22.90385 | 4847 ft | 289 kts | 88° |
| 2026-04-29 16:39 | 16.87260 | -22.88254 | 5385 ft | 297 kts | 92° |
| 2026-04-29 16:39 | 16.87229 | -22.87097 | 5718 ft | 300 kts | 92° |
| 2026-04-29 16:40 | 16.87191 | -22.84905 | 6311 ft | 306 kts | 91° |
| 2026-04-29 16:40 | 16.87182 | -22.82663 | 6891 ft | 311 kts | 91° |
| 2026-04-29 16:40 | 16.87167 | -22.80413 | 7535 ft | 309 kts | 97° |
| 2026-04-29 16:40 | 16.86582 | -22.78281 | 8001 ft | 306 kts | 126° |
| 2026-04-29 16:41 | 16.85179 | -22.76684 | 8608 ft | 296 kts | 152° |
| 2026-04-29 16:41 | 16.83354 | -22.75777 | 9277 ft | 287 kts | 170° |
| 2026-04-29 16:41 | 16.81405 | -22.75485 | 9900 ft | 282 kts | 181° |
| 2026-04-29 16:41 | 16.79423 | -22.75380 | 10348 ft | 291 kts | 182° |
| 2026-04-29 16:42 | 16.77328 | -22.75300 | 10492 ft | 312 kts | 182° |
| 2026-04-29 16:42 | 16.75085 | -22.75216 | 10649 ft | 333 kts | 181° |
| 2026-04-29 16:42 | 16.72698 | -22.75118 | 10801 ft | 354 kts | 181° |
| 2026-04-29 16:42 | 16.70177 | -22.75005 | 11074 ft | 369 kts | 180° |
| 2026-04-29 16:43 | 16.67576 | -22.74878 | 11543 ft | 379 kts | 180° |
| 2026-04-29 16:43 | 16.64923 | -22.74744 | 12138 ft | 384 kts | 180° |
| 2026-04-29 16:43 | 16.62323 | -22.74610 | 12766 ft | 389 kts | 179° |
| 2026-04-29 16:43 | 16.59731 | -22.74477 | 13360 ft | 394 kts | 179° |
| 2026-04-29 16:44 | 16.56977 | -22.74335 | 13954 ft | 399 kts | 179° |
| 2026-04-29 16:44 | 16.54192 | -22.74192 | 14508 ft | 403 kts | 179° |
| 2026-04-29 16:44 | 16.51383 | -22.74049 | 15093 ft | 406 kts | 179° |
| 2026-04-29 16:44 | 16.48550 | -22.73904 | 15661 ft | 409 kts | 179° |
| 2026-04-29 16:45 | 16.45698 | -22.73760 | 16224 ft | 413 kts | 179° |
| 2026-04-29 16:45 | 16.42817 | -22.73614 | 16762 ft | 416 kts | 180° |
| 2026-04-29 16:45 | 16.39910 | -22.73467 | 17299 ft | 420 kts | 180° |
| 2026-04-29 16:45 | 16.36976 | -22.73319 | 17838 ft | 424 kts | 180° |
| 2026-04-29 16:46 | 16.34026 | -22.73169 | 18348 ft | 427 kts | 180° |
| 2026-04-29 16:46 | 16.31039 | -22.73018 | 18786 ft | 431 kts | 180° |
| 2026-04-29 16:46 | 16.28051 | -22.72977 | 19148 ft | 429 kts | 189° |
| 2026-04-29 16:46 | 16.25183 | -22.73778 | 19438 ft | 428 kts | 209° |
| 2026-04-29 16:47 | 16.22611 | -22.75285 | 19821 ft | 426 kts | 213° |
| 2026-04-29 16:47 | 16.20008 | -22.76828 | 20037 ft | 436 kts | 212° |
| 2026-04-29 16:47 | 16.17331 | -22.78383 | 20237 ft | 445 kts | 212° |
| 2026-04-29 16:47 | 16.14992 | -22.79725 | 20496 ft | 450 kts | 212° |
| 2026-04-29 16:48 | 16.12240 | -22.81293 | 20887 ft | 453 kts | 212° |
| 2026-04-29 16:48 | 16.09469 | -22.82867 | 21325 ft | 454 kts | 212° |
| 2026-04-29 16:48 | 16.06693 | -22.84442 | 21736 ft | 457 kts | 212° |
| 2026-04-29 16:48 | 16.03893 | -22.86030 | 22119 ft | 459 kts | 212° |
| 2026-04-29 16:49 | 16.01080 | -22.87626 | 22467 ft | 463 kts | 212° |
| 2026-04-29 16:49 | 15.98244 | -22.89236 | 22836 ft | 466 kts | 212° |
| 2026-04-29 16:49 | 15.95395 | -22.90853 | 23194 ft | 468 kts | 212° |
| 2026-04-29 16:49 | 15.92519 | -22.92484 | 23525 ft | 471 kts | 212° |
| 2026-04-29 16:50 | 15.89634 | -22.94120 | 23834 ft | 473 kts | 212° |
| 2026-04-29 16:50 | 15.86742 | -22.95758 | 24125 ft | 475 kts | 212° |
| 2026-04-29 16:50 | 15.83835 | -22.97405 | 24427 ft | 477 kts | 212° |
| 2026-04-29 16:50 | 15.80956 | -22.99036 | 24720 ft | 479 kts | 212° |
| 2026-04-29 16:51 | 15.78286 | -23.00548 | 24988 ft | 480 kts | 212° |
| 2026-04-29 16:51 | 15.75350 | -23.02211 | 25272 ft | 482 kts | 212° |
| 2026-04-29 16:51 | 15.72400 | -23.03880 | 25557 ft | 484 kts | 212° |
| 2026-04-29 16:51 | 15.69437 | -23.05557 | 25826 ft | 486 kts | 212° |
| 2026-04-29 16:52 | 15.66469 | -23.07236 | 26095 ft | 487 kts | 212° |
| 2026-04-29 16:52 | 15.63484 | -23.08923 | 26345 ft | 489 kts | 212° |
| 2026-04-29 16:52 | 15.60489 | -23.10617 | 26600 ft | 491 kts | 212° |
| 2026-04-29 16:52 | 15.57486 | -23.12314 | 26843 ft | 493 kts | 212° |
| 2026-04-29 16:53 | 15.54480 | -23.14026 | 27078 ft | 493 kts | 214° |
| 2026-04-29 16:53 | 15.52586 | -23.15312 | 27201 ft | 490 kts | 221° |
| 2026-04-29 16:53 | 15.49970 | -23.17569 | 27368 ft | 490 kts | 225° |
| 2026-04-29 16:53 | 15.47449 | -23.19951 | 27589 ft | 491 kts | 226° |
| 2026-04-29 16:54 | 15.44104 | -23.23185 | 27864 ft | 492 kts | 226° |
| 2026-04-29 16:54 | 15.42442 | -23.24781 | 28000 ft | 493 kts | 226° |
| 2026-04-29 16:54 | 15.39902 | -23.27187 | 28202 ft | 495 kts | 225° |
| 2026-04-29 16:54 | 15.37337 | -23.29577 | 28402 ft | 496 kts | 225° |
| 2026-04-29 16:55 | 15.34760 | -23.31948 | 28707 ft | 495 kts | 225° |
| 2026-04-29 16:55 | 15.32181 | -23.34304 | 29049 ft | 493 kts | 225° |
| 2026-04-29 16:55 | 15.29609 | -23.36646 | 29388 ft | 492 kts | 225° |
| 2026-04-29 16:55 | 15.27040 | -23.38983 | 29725 ft | 491 kts | 225° |
| 2026-04-29 16:56 | 15.24478 | -23.41316 | 29925 ft | 493 kts | 225° |
| 2026-04-29 16:56 | 15.21899 | -23.43666 | 29987 ft | 494 kts | 225° |
| 2026-04-29 16:56 | 15.19318 | -23.46019 | 30153 ft | 494 kts | 225° |
| 2026-04-29 16:56 | 15.16744 | -23.48365 | 30482 ft | 491 kts | 225° |
| 2026-04-29 16:57 | 15.14184 | -23.50696 | 30860 ft | 488 kts | 225° |
| 2026-04-29 16:57 | 15.11648 | -23.53005 | 31253 ft | 484 kts | 225° |
| 2026-04-29 16:57 | 15.09126 | -23.55300 | 31638 ft | 481 kts | 225° |
| 2026-04-29 16:57 | 15.06619 | -23.57583 | 31885 ft | 482 kts | 225° |
| 2026-04-29 16:58 | 15.01571 | -23.62179 | 31951 ft | 482 kts | 225° |
| 2026-04-29 16:58 | 14.96546 | -23.66747 | 31961 ft | 479 kts | 225° |
| 2026-04-29 16:59 | 14.91546 | -23.71290 | 31969 ft | 478 kts | 225° |
| 2026-04-29 16:59 | 14.86559 | -23.75821 | 31972 ft | 477 kts | 225° |
| 2026-04-29 17:00 | 14.81568 | -23.80351 | 31975 ft | 478 kts | 225° |
| 2026-04-29 17:00 | 14.76560 | -23.84893 | 31971 ft | 479 kts | 225° |
| 2026-04-29 17:01 | 14.71536 | -23.89447 | 31965 ft | 481 kts | 225° |
| 2026-04-29 17:01 | 14.66504 | -23.94005 | 31970 ft | 482 kts | 225° |
| 2026-04-29 17:02 | 14.61452 | -23.98578 | 31969 ft | 483 kts | 224° |
| 2026-04-29 17:02 | 14.56408 | -24.03141 | 31963 ft | 484 kts | 224° |
| 2026-04-29 17:03 | 14.51329 | -24.07732 | 31961 ft | 484 kts | 224° |
| 2026-04-29 17:03 | 14.46267 | -24.12306 | 31965 ft | 484 kts | 224° |
| 2026-04-29 17:04 | 14.41204 | -24.16878 | 31972 ft | 484 kts | 224° |
| 2026-04-29 17:04 | 14.36169 | -24.21421 | 31961 ft | 484 kts | 224° |
| 2026-04-29 17:05 | 14.31104 | -24.25990 | 31964 ft | 484 kts | 224° |
| 2026-04-29 17:05 | 14.26039 | -24.30554 | 31964 ft | 484 kts | 224° |
| 2026-04-29 17:06 | 14.20972 | -24.35119 | 31967 ft | 484 kts | 224° |
| 2026-04-29 17:06 | 14.15900 | -24.39685 | 31962 ft | 484 kts | 224° |
| 2026-04-29 17:07 | 14.10834 | -24.44243 | 31961 ft | 484 kts | 224° |
| 2026-04-29 17:07 | 14.05759 | -24.48807 | 31962 ft | 484 kts | 224° |
| 2026-04-29 17:08 | 14.00241 | -24.52800 | 31970 ft | 489 kts | 211° |
| 2026-04-29 17:08 | 13.94180 | -24.56020 | 31962 ft | 490 kts | 211° |
| 2026-04-29 17:09 | 13.88198 | -24.59392 | 31963 ft | 490 kts | 212° |
| 2026-04-29 17:09 | 13.82240 | -24.62803 | 31962 ft | 490 kts | 212° |
| 2026-04-29 17:10 | 13.76268 | -24.66181 | 31962 ft | 490 kts | 212° |
| 2026-04-29 17:10 | 13.70300 | -24.69550 | 31957 ft | 489 kts | 212° |
| 2026-04-29 17:11 | 13.64332 | -24.72923 | 31956 ft | 489 kts | 212° |
| 2026-04-29 17:11 | 13.58375 | -24.76290 | 31958 ft | 489 kts | 212° |
| 2026-04-29 17:12 | 13.52417 | -24.79657 | 31955 ft | 488 kts | 212° |
| 2026-04-29 17:12 | 13.47467 | -24.82453 | 31953 ft | 489 kts | 212° |
| 2026-04-29 17:13 | 13.40516 | -24.86376 | 31952 ft | 489 kts | 212° |
| 2026-04-29 17:13 | 13.34540 | -24.89747 | 31948 ft | 489 kts | 212° |
| 2026-04-29 17:14 | 13.28613 | -24.93089 | 31953 ft | 489 kts | 212° |
| 2026-04-29 17:14 | 13.22639 | -24.96454 | 31964 ft | 490 kts | 212° |
| 2026-04-29 17:15 | 13.16624 | -24.99841 | 31949 ft | 490 kts | 212° |
| 2026-04-29 17:15 | 13.10642 | -25.03208 | 31946 ft | 491 kts | 212° |
| 2026-04-29 17:16 | 13.04658 | -25.06574 | 31963 ft | 491 kts | 212° |
| 2026-04-29 17:16 | 12.98660 | -25.09946 | 31962 ft | 491 kts | 212° |
| 2026-04-29 17:17 | 12.92701 | -25.13293 | 31960 ft | 492 kts | 212° |
| 2026-04-29 17:17 | 12.86705 | -25.16660 | 31940 ft | 492 kts | 212° |
| 2026-04-29 17:18 | 12.80698 | -25.20031 | 31954 ft | 492 kts | 211° |
| 2026-04-29 17:18 | 12.74695 | -25.23399 | 31957 ft | 492 kts | 211° |
| 2026-04-29 17:19 | 12.68686 | -25.26767 | 31949 ft | 492 kts | 211° |
| 2026-04-29 17:19 | 12.62679 | -25.30133 | 31948 ft | 492 kts | 211° |
| 2026-04-29 17:20 | 12.56662 | -25.33502 | 31951 ft | 493 kts | 211° |
| 2026-04-29 17:20 | 12.50648 | -25.36869 | 31949 ft | 493 kts | 211° |
| 2026-04-29 17:21 | 12.44632 | -25.40234 | 31947 ft | 493 kts | 211° |
| 2026-04-29 17:21 | 12.38613 | -25.43599 | 31949 ft | 493 kts | 211° |
| 2026-04-29 17:22 | 12.32591 | -25.46965 | 31949 ft | 493 kts | 211° |
| 2026-04-29 17:22 | 12.26565 | -25.50330 | 31947 ft | 494 kts | 211° |
| 2026-04-29 17:23 | 12.20534 | -25.53697 | 31947 ft | 494 kts | 211° |
| 2026-04-29 17:23 | 12.14515 | -25.57055 | 31944 ft | 494 kts | 211° |
| 2026-04-29 17:24 | 12.08478 | -25.60421 | 31945 ft | 494 kts | 211° |
| 2026-04-29 17:24 | 12.02440 | -25.63786 | 31945 ft | 495 kts | 211° |
| 2026-04-29 17:25 | 11.96399 | -25.67152 | 31943 ft | 495 kts | 211° |
| 2026-04-29 17:25 | 11.90352 | -25.70518 | 31938 ft | 495 kts | 211° |
| 2026-04-29 17:26 | 11.84303 | -25.73885 | 31938 ft | 495 kts | 211° |
| 2026-04-29 17:26 | 11.78535 | -25.77093 | 31946 ft | 495 kts | 211° |
| 2026-04-29 17:27 | 11.72487 | -25.80455 | 31944 ft | 495 kts | 211° |
| 2026-04-29 17:27 | 11.66391 | -25.83843 | 31942 ft | 495 kts | 211° |
| 2026-04-29 17:28 | 11.60333 | -25.87207 | 31945 ft | 496 kts | 211° |
| 2026-04-29 17:28 | 11.54323 | -25.90543 | 31945 ft | 496 kts | 211° |
| 2026-04-29 17:29 | 11.48259 | -25.93908 | 31945 ft | 496 kts | 211° |
| 2026-04-29 17:29 | 11.43182 | -25.96723 | 31942 ft | 496 kts | 211° |
| 2026-04-29 17:30 | 11.36138 | -26.00628 | 31948 ft | 496 kts | 211° |
| 2026-04-29 17:30 | 11.30073 | -26.03988 | 31942 ft | 496 kts | 211° |
| 2026-04-29 17:31 | 11.24006 | -26.07348 | 31942 ft | 496 kts | 211° |
| 2026-04-29 17:31 | 11.17932 | -26.10709 | 31939 ft | 497 kts | 211° |
| 2026-04-29 17:32 | 11.11860 | -26.14068 | 31941 ft | 497 kts | 210° |
| 2026-04-29 17:32 | 11.05783 | -26.17428 | 31940 ft | 497 kts | 210° |
| 2026-04-29 17:33 | 10.99706 | -26.20787 | 31941 ft | 497 kts | 210° |
| 2026-04-29 17:33 | 10.93627 | -26.24145 | 31942 ft | 497 kts | 210° |
| 2026-04-29 17:34 | 10.87547 | -26.27503 | 31941 ft | 497 kts | 210° |
| 2026-04-29 17:34 | 10.81511 | -26.30834 | 31944 ft | 497 kts | 210° |
| 2026-04-29 17:35 | 10.72383 | -26.35869 | 31938 ft | 497 kts | 210° |
| 2026-04-29 17:36 | 10.66300 | -26.39222 | 31936 ft | 497 kts | 210° |
| 2026-04-29 17:36 | 10.60216 | -26.42575 | 31942 ft | 498 kts | 210° |
| 2026-04-29 17:37 | 10.54127 | -26.45928 | 31942 ft | 498 kts | 210° |
| 2026-04-29 17:37 | 10.49069 | -26.48713 | 31940 ft | 498 kts | 210° |
| 2026-04-29 17:38 | 10.42936 | -26.52088 | 31940 ft | 498 kts | 210° |
| 2026-04-29 17:38 | 10.36847 | -26.55437 | 31942 ft | 498 kts | 210° |
| 2026-04-29 17:39 | 10.30754 | -26.58787 | 31939 ft | 498 kts | 210° |
| 2026-04-29 17:39 | 10.24701 | -26.62114 | 31935 ft | 498 kts | 210° |
| 2026-04-29 17:40 | 10.18609 | -26.65460 | 31935 ft | 498 kts | 210° |
| 2026-04-29 17:40 | 10.12515 | -26.68806 | 31940 ft | 498 kts | 210° |
| 2026-04-29 17:41 | 10.06417 | -26.72153 | 31939 ft | 498 kts | 210° |
| 2026-04-29 17:41 | 10.00324 | -26.75496 | 31941 ft | 499 kts | 210° |
| 2026-04-29 17:42 | 9.94216 | -26.78846 | 31941 ft | 499 kts | 210° |
| 2026-04-29 17:42 | 9.88114 | -26.82191 | 31939 ft | 499 kts | 210° |
| 2026-04-29 17:43 | 9.82005 | -26.85538 | 31940 ft | 499 kts | 210° |
| 2026-04-29 17:43 | 9.75899 | -26.88882 | 31940 ft | 499 kts | 210° |
| 2026-04-29 17:44 | 9.69789 | -26.92226 | 31941 ft | 499 kts | 210° |
| 2026-04-29 17:44 | 9.63684 | -26.95567 | 31939 ft | 499 kts | 210° |
| 2026-04-29 17:45 | 9.57573 | -26.98910 | 31937 ft | 499 kts | 210° |
| 2026-04-29 17:45 | 9.51467 | -27.02249 | 31936 ft | 499 kts | 210° |
| 2026-04-29 17:46 | 9.45356 | -27.05589 | 31936 ft | 499 kts | 210° |
| 2026-04-29 17:46 | 9.39246 | -27.08927 | 31937 ft | 499 kts | 210° |
| 2026-04-29 17:47 | 9.33173 | -27.12244 | 31936 ft | 499 kts | 210° |
| 2026-04-29 17:47 | 9.27020 | -27.15602 | 31936 ft | 499 kts | 210° |
| 2026-04-29 17:48 | 9.20905 | -27.18939 | 31935 ft | 499 kts | 210° |
| 2026-04-29 17:48 | 9.14831 | -27.22253 | 31936 ft | 499 kts | 210° |
| 2026-04-29 17:49 | 9.08719 | -27.25586 | 31935 ft | 499 kts | 210° |
| 2026-04-29 17:49 | 9.02561 | -27.28943 | 31934 ft | 499 kts | 210° |
| 2026-04-29 17:50 | 8.96447 | -27.32275 | 31934 ft | 499 kts | 210° |
| 2026-04-29 17:50 | 8.90337 | -27.35601 | 31935 ft | 499 kts | 210° |
| 2026-04-29 17:51 | 8.84215 | -27.38931 | 31930 ft | 499 kts | 210° |
| 2026-04-29 17:51 | 8.78100 | -27.42258 | 31931 ft | 499 kts | 210° |
| 2026-04-29 17:52 | 8.71982 | -27.45586 | 31931 ft | 499 kts | 210° |
| 2026-04-29 17:52 | 8.65861 | -27.48916 | 31930 ft | 500 kts | 210° |
| 2026-04-29 17:53 | 8.61035 | -27.51539 | 31929 ft | 500 kts | 210° |
| 2026-04-29 17:53 | 8.54876 | -27.54884 | 31926 ft | 500 kts | 210° |
| 2026-04-29 17:54 | 8.48790 | -27.58191 | 31927 ft | 500 kts | 210° |
| 2026-04-29 17:54 | 8.42662 | -27.61519 | 31926 ft | 500 kts | 210° |
| 2026-04-29 17:55 | 8.36535 | -27.64845 | 31923 ft | 500 kts | 210° |
| 2026-04-29 17:55 | 8.30404 | -27.68170 | 31925 ft | 500 kts | 210° |
| 2026-04-29 17:56 | 8.24273 | -27.71497 | 31923 ft | 500 kts | 210° |
| 2026-04-29 17:56 | 8.18142 | -27.74822 | 31925 ft | 500 kts | 210° |
| 2026-04-29 17:57 | 8.12006 | -27.78147 | 31925 ft | 501 kts | 210° |
| 2026-04-29 17:57 | 8.05863 | -27.81475 | 31921 ft | 501 kts | 210° |
| 2026-04-29 17:58 | 7.99722 | -27.84802 | 31923 ft | 501 kts | 210° |
| 2026-04-29 17:58 | 7.93582 | -27.88126 | 31920 ft | 501 kts | 210° |
| 2026-04-29 17:59 | 7.87438 | -27.91453 | 31920 ft | 501 kts | 210° |
| 2026-04-29 17:59 | 7.81283 | -27.94783 | 31919 ft | 502 kts | 209° |
| 2026-04-29 18:00 | 7.75171 | -27.98089 | 31920 ft | 502 kts | 210° |
| 2026-04-29 18:00 | 7.69018 | -28.01416 | 31920 ft | 502 kts | 210° |
| 2026-04-29 18:01 | 7.62859 | -28.04746 | 31919 ft | 502 kts | 209° |
| 2026-04-29 18:01 | 7.56699 | -28.08074 | 31916 ft | 502 kts | 209° |
| 2026-04-29 18:02 | 7.50537 | -28.11404 | 31918 ft | 503 kts | 209° |
| 2026-04-29 18:02 | 7.44373 | -28.14733 | 31913 ft | 503 kts | 210° |
| 2026-04-29 18:03 | 7.38204 | -28.18064 | 31915 ft | 503 kts | 210° |
| 2026-04-29 18:03 | 7.32027 | -28.21397 | 31911 ft | 503 kts | 209° |
| 2026-04-29 18:04 | 7.25856 | -28.24728 | 31916 ft | 503 kts | 209° |
| 2026-04-29 18:04 | 7.19677 | -28.28058 | 31917 ft | 504 kts | 209° |
| 2026-04-29 18:05 | 7.13496 | -28.31387 | 31912 ft | 504 kts | 209° |
| 2026-04-29 18:05 | 7.07313 | -28.34720 | 31915 ft | 504 kts | 209° |
| 2026-04-29 18:06 | 7.01136 | -28.38050 | 31912 ft | 504 kts | 209° |
| 2026-04-29 18:06 | 6.94947 | -28.41384 | 31910 ft | 504 kts | 209° |
| 2026-04-29 18:07 | 6.88763 | -28.44713 | 31913 ft | 504 kts | 209° |
| 2026-04-29 18:07 | 6.82575 | -28.48045 | 31912 ft | 504 kts | 209° |
| 2026-04-29 18:08 | 6.76396 | -28.51370 | 31912 ft | 504 kts | 209° |
| 2026-04-29 18:08 | 6.70208 | -28.54698 | 31916 ft | 504 kts | 209° |
| 2026-04-29 18:09 | 6.64020 | -28.58027 | 31911 ft | 504 kts | 209° |
| 2026-04-29 18:09 | 6.57837 | -28.61351 | 31911 ft | 504 kts | 209° |
| 2026-04-29 18:10 | 6.51650 | -28.64677 | 31910 ft | 505 kts | 208° |
| 2026-04-29 18:10 | 6.45379 | -28.68048 | 31921 ft | 517 kts | 208° |
| 2026-04-29 18:11 | 6.39053 | -28.71448 | 31912 ft | 522 kts | 209° |
| 2026-04-29 18:11 | 6.32608 | -28.74908 | 31916 ft | 527 kts | 208° |
| 2026-04-29 18:12 | 6.26698 | -28.78081 | 31910 ft | 528 kts | 208° |
| 2026-04-29 18:12 | 6.20220 | -28.81558 | 31909 ft | 528 kts | 208° |
| 2026-04-29 18:13 | 6.13747 | -28.85032 | 31906 ft | 527 kts | 208° |
| 2026-04-29 18:13 | 6.07288 | -28.88497 | 31904 ft | 526 kts | 208° |
| 2026-04-29 18:14 | 6.00849 | -28.91951 | 31905 ft | 524 kts | 208° |
| 2026-04-29 18:14 | 5.94420 | -28.95398 | 31904 ft | 523 kts | 208° |
| 2026-04-29 18:15 | 5.88000 | -28.98840 | 31906 ft | 523 kts | 208° |
| 2026-04-29 18:15 | 5.81529 | -29.02309 | 31911 ft | 523 kts | 208° |
| 2026-04-29 18:16 | 5.75152 | -29.05725 | 31906 ft | 523 kts | 208° |
| 2026-04-29 18:16 | 5.68684 | -29.09189 | 31908 ft | 524 kts | 208° |
| 2026-04-29 18:17 | 5.62256 | -29.12631 | 31910 ft | 524 kts | 208° |
| 2026-04-29 18:17 | 5.55820 | -29.16077 | 31904 ft | 525 kts | 208° |
| 2026-04-29 18:18 | 5.49380 | -29.19524 | 31905 ft | 525 kts | 208° |
| 2026-04-29 18:18 | 5.42965 | -29.22956 | 31902 ft | 525 kts | 208° |
| 2026-04-29 18:19 | 5.36519 | -29.26405 | 31907 ft | 525 kts | 208° |
| 2026-04-29 18:19 | 5.30075 | -29.29852 | 31902 ft | 525 kts | 208° |
| 2026-04-29 18:20 | 5.23619 | -29.33304 | 31900 ft | 525 kts | 208° |
| 2026-04-29 18:20 | 5.17189 | -29.36741 | 31901 ft | 525 kts | 208° |
| 2026-04-29 18:21 | 5.10726 | -29.40196 | 31899 ft | 525 kts | 208° |
| 2026-04-29 18:21 | 5.04284 | -29.43638 | 31902 ft | 524 kts | 208° |
| 2026-04-29 18:22 | 4.97851 | -29.47075 | 31900 ft | 524 kts | 208° |
| 2026-04-29 18:22 | 4.91414 | -29.50513 | 31898 ft | 524 kts | 208° |
| 2026-04-29 18:23 | 4.84991 | -29.53943 | 31899 ft | 523 kts | 208° |
| 2026-04-29 18:23 | 4.79651 | -29.56794 | 31897 ft | 523 kts | 208° |
| 2026-04-29 18:24 | 4.73241 | -29.60215 | 31896 ft | 522 kts | 208° |
| 2026-04-29 18:24 | 4.66829 | -29.63637 | 31897 ft | 522 kts | 208° |
| 2026-04-29 18:25 | 4.60425 | -29.67054 | 31896 ft | 521 kts | 208° |
| 2026-04-29 18:25 | 4.54019 | -29.70472 | 31893 ft | 521 kts | 208° |
| 2026-04-29 18:26 | 4.47623 | -29.73883 | 31894 ft | 521 kts | 208° |
| 2026-04-29 18:26 | 4.41229 | -29.77293 | 31898 ft | 521 kts | 208° |
| 2026-04-29 18:27 | 4.34825 | -29.80707 | 32331 ft | 518 kts | 208° |
| 2026-04-29 18:27 | 4.31660 | -29.82394 | 32748 ft | 513 kts | 208° |
| 2026-04-29 18:27 | 4.28516 | -29.84070 | 33017 ft | 511 kts | 208° |
| 2026-04-29 18:27 | 4.25378 | -29.85743 | 33316 ft | 509 kts | 208° |
| 2026-04-29 18:28 | 4.22263 | -29.87403 | 33606 ft | 507 kts | 207° |
| 2026-04-29 18:28 | 4.19150 | -29.89062 | 33805 ft | 507 kts | 208° |
| 2026-04-29 18:28 | 4.16032 | -29.90723 | 33837 ft | 509 kts | 208° |
| 2026-04-29 18:29 | 4.09766 | -29.94062 | 33893 ft | 511 kts | 208° |
| 2026-04-29 18:29 | 4.03513 | -29.97394 | 33896 ft | 512 kts | 208° |
| 2026-04-29 18:30 | 3.97235 | -30.00736 | 33896 ft | 510 kts | 207° |
| 2026-04-29 18:30 | 3.90897 | -30.04103 | 33895 ft | 514 kts | 207° |
| 2026-04-29 18:31 | 3.84608 | -30.07445 | 33889 ft | 511 kts | 207° |
| 2026-04-29 18:31 | 3.78339 | -30.10777 | 33889 ft | 509 kts | 207° |
| 2026-04-29 18:32 | 3.72143 | -30.14070 | 33881 ft | 505 kts | 207° |
| 2026-04-29 18:32 | 3.62892 | -30.18986 | 33884 ft | 500 kts | 207° |
| 2026-04-29 18:33 | 3.56759 | -30.22244 | 33894 ft | 499 kts | 207° |
| 2026-04-29 18:33 | 3.50608 | -30.25511 | 33897 ft | 501 kts | 207° |
| 2026-04-29 18:34 | 3.45431 | -30.28260 | 33899 ft | 504 kts | 207° |
| 2026-04-29 18:34 | 3.38187 | -30.32107 | 33896 ft | 508 kts | 207° |
| 2026-04-29 18:35 | 3.31935 | -30.35427 | 33891 ft | 509 kts | 207° |
| 2026-04-29 18:35 | 3.25682 | -30.38746 | 33890 ft | 509 kts | 207° |
| 2026-04-29 18:36 | 3.19434 | -30.42062 | 33885 ft | 507 kts | 207° |
| 2026-04-29 18:36 | 3.13204 | -30.45369 | 33882 ft | 506 kts | 207° |
| 2026-04-29 18:37 | 3.06985 | -30.48669 | 33895 ft | 506 kts | 207° |
| 2026-04-29 18:37 | 3.00765 | -30.51969 | 33884 ft | 506 kts | 207° |
| 2026-04-29 18:38 | 2.94594 | -30.55243 | 33889 ft | 505 kts | 207° |
| 2026-04-29 18:38 | 2.88383 | -30.58538 | 33888 ft | 505 kts | 207° |
| 2026-04-29 18:39 | 2.82168 | -30.61834 | 33886 ft | 506 kts | 207° |
| 2026-04-29 18:39 | 2.75943 | -30.65135 | 33888 ft | 506 kts | 207° |
| 2026-04-29 18:40 | 2.69717 | -30.68436 | 33888 ft | 507 kts | 207° |
| 2026-04-29 18:40 | 2.63480 | -30.71743 | 33886 ft | 508 kts | 207° |
| 2026-04-29 18:41 | 2.50985 | -30.78367 | 33885 ft | 509 kts | 207° |
| 2026-04-29 18:42 | 2.44727 | -30.81684 | 33892 ft | 509 kts | 207° |
| 2026-04-29 18:42 | 2.38464 | -30.85004 | 33888 ft | 510 kts | 207° |
| 2026-04-29 18:43 | 2.32201 | -30.88323 | 33891 ft | 510 kts | 207° |
| 2026-04-29 18:43 | 2.25934 | -30.91645 | 33887 ft | 510 kts | 207° |
| 2026-04-29 18:44 | 2.19662 | -30.94965 | 33888 ft | 510 kts | 207° |
| 2026-04-29 18:44 | 2.13350 | -30.98304 | 33884 ft | 510 kts | 207° |
| 2026-04-29 18:45 | 2.07123 | -31.01598 | 33885 ft | 510 kts | 207° |
| 2026-04-29 18:45 | 2.00862 | -31.04911 | 33884 ft | 510 kts | 207° |
| 2026-04-29 18:46 | 1.94595 | -31.08227 | 33884 ft | 510 kts | 207° |
| 2026-04-29 18:46 | 1.88324 | -31.11546 | 33883 ft | 510 kts | 207° |
| 2026-04-29 18:47 | 1.82056 | -31.14862 | 33883 ft | 510 kts | 207° |
| 2026-04-29 18:47 | 1.75785 | -31.18180 | 33886 ft | 510 kts | 207° |
| 2026-04-29 18:48 | 1.69503 | -31.21503 | 33880 ft | 511 kts | 207° |
| 2026-04-29 18:48 | 1.63221 | -31.24826 | 33883 ft | 511 kts | 207° |
| 2026-04-29 18:49 | 1.56934 | -31.28151 | 33885 ft | 511 kts | 207° |
| 2026-04-29 18:49 | 1.50644 | -31.31478 | 33885 ft | 511 kts | 207° |
| 2026-04-29 18:50 | 1.44354 | -31.34804 | 33886 ft | 512 kts | 207° |
| 2026-04-29 18:50 | 1.38062 | -31.38132 | 33881 ft | 512 kts | 207° |
| 2026-04-29 18:51 | 1.31765 | -31.41461 | 33884 ft | 512 kts | 207° |
| 2026-04-29 18:51 | 1.25471 | -31.44789 | 33882 ft | 512 kts | 207° |
| 2026-04-29 18:52 | 1.19172 | -31.48119 | 33884 ft | 512 kts | 207° |
| 2026-04-29 18:52 | 1.12877 | -31.51448 | 33881 ft | 512 kts | 207° |
| 2026-04-29 18:53 | 1.06577 | -31.54778 | 33883 ft | 512 kts | 207° |
| 2026-04-29 18:53 | 1.00276 | -31.58110 | 33886 ft | 512 kts | 207° |
| 2026-04-29 18:54 | 0.93975 | -31.61440 | 33886 ft | 512 kts | 207° |
| 2026-04-29 18:54 | 0.87674 | -31.64771 | 33883 ft | 513 kts | 207° |
| 2026-04-29 18:55 | 0.81369 | -31.68104 | 33886 ft | 513 kts | 207° |
| 2026-04-29 18:55 | 0.75060 | -31.71439 | 33886 ft | 513 kts | 207° |
| 2026-04-29 18:56 | 0.68796 | -31.74750 | 33885 ft | 513 kts | 207° |
| 2026-04-29 18:56 | 0.62495 | -31.78081 | 33884 ft | 513 kts | 207° |
| 2026-04-29 18:57 | 0.56188 | -31.81414 | 33879 ft | 513 kts | 207° |
| 2026-04-29 18:57 | 0.49878 | -31.84750 | 33882 ft | 513 kts | 207° |
| 2026-04-29 18:58 | 0.43566 | -31.88086 | 33884 ft | 513 kts | 207° |
| 2026-04-29 18:58 | 0.37256 | -31.91423 | 33885 ft | 513 kts | 207° |
| 2026-04-29 18:59 | 0.30945 | -31.94763 | 33884 ft | 513 kts | 207° |
| 2026-04-29 18:59 | 0.24633 | -31.98104 | 33884 ft | 513 kts | 207° |
| 2026-04-29 19:00 | 0.18318 | -32.01447 | 33886 ft | 514 kts | 207° |
| 2026-04-29 19:00 | 0.12009 | -32.04786 | 33882 ft | 514 kts | 207° |
| 2026-04-29 19:01 | 0.05694 | -32.08129 | 33882 ft | 514 kts | 207° |
| 2026-04-29 19:01 | -0.00624 | -32.11473 | 33887 ft | 514 kts | 207° |
| 2026-04-29 19:02 | -0.05870 | -32.14250 | 33881 ft | 513 kts | 207° |
| 2026-04-29 19:02 | -0.13251 | -32.18156 | 33883 ft | 513 kts | 207° |
| 2026-04-29 19:03 | -0.19560 | -32.21496 | 33884 ft | 513 kts | 207° |
| 2026-04-29 19:03 | -0.25872 | -32.24837 | 33886 ft | 513 kts | 207° |
| 2026-04-29 19:04 | -0.32175 | -32.28173 | 33889 ft | 513 kts | 207° |
| 2026-04-29 19:04 | -0.38430 | -32.31484 | 33884 ft | 513 kts | 207° |
| 2026-04-29 19:05 | -0.44749 | -32.34829 | 33883 ft | 513 kts | 207° |
| 2026-04-29 19:05 | -0.51056 | -32.38167 | 33887 ft | 513 kts | 207° |
| 2026-04-29 19:06 | -0.57360 | -32.41504 | 33882 ft | 513 kts | 207° |
| 2026-04-29 19:07 | -0.66805 | -32.46504 | 33885 ft | 512 kts | 207° |
| 2026-04-29 19:07 | -0.73103 | -32.49838 | 33886 ft | 512 kts | 207° |
| 2026-04-29 19:08 | -0.79398 | -32.53171 | 33885 ft | 512 kts | 207° |
| 2026-04-29 19:08 | -0.85691 | -32.56503 | 33886 ft | 512 kts | 207° |
| 2026-04-29 19:09 | -0.91976 | -32.59831 | 33889 ft | 511 kts | 207° |
| 2026-04-29 19:09 | -0.97192 | -32.62592 | 33887 ft | 511 kts | 206° |
| 2026-04-29 19:10 | -1.03487 | -32.65925 | 33884 ft | 511 kts | 206° |
| 2026-04-29 19:10 | -1.09773 | -32.69254 | 33885 ft | 511 kts | 206° |
| 2026-04-29 19:11 | -1.16052 | -32.72579 | 33885 ft | 511 kts | 206° |
| 2026-04-29 19:11 | -1.22327 | -32.75903 | 33887 ft | 510 kts | 206° |
| 2026-04-29 19:12 | -1.28600 | -32.79226 | 33891 ft | 510 kts | 206° |
| 2026-04-29 19:12 | -1.34872 | -32.82548 | 33887 ft | 510 kts | 206° |
| 2026-04-29 19:13 | -1.41146 | -32.85870 | 33889 ft | 510 kts | 206° |
| 2026-04-29 19:13 | -1.47419 | -32.89192 | 33886 ft | 510 kts | 206° |
| 2026-04-29 19:14 | -1.53691 | -32.92514 | 33889 ft | 510 kts | 206° |
| 2026-04-29 19:14 | -1.59963 | -32.95837 | 33881 ft | 510 kts | 206° |
| 2026-04-29 19:15 | -1.66236 | -32.99162 | 33886 ft | 510 kts | 206° |
| 2026-04-29 19:15 | -1.72514 | -33.02488 | 33888 ft | 511 kts | 206° |
| 2026-04-29 19:16 | -1.78790 | -33.05814 | 33888 ft | 511 kts | 206° |
| 2026-04-29 19:16 | -1.85070 | -33.09143 | 33886 ft | 511 kts | 206° |
| 2026-04-29 19:17 | -1.91347 | -33.12470 | 33888 ft | 511 kts | 206° |
| 2026-04-29 19:17 | -1.97586 | -33.15777 | 33888 ft | 511 kts | 206° |
| 2026-04-29 19:18 | -2.03865 | -33.19106 | 33888 ft | 511 kts | 206° |
| 2026-04-29 19:18 | -2.10134 | -33.22430 | 33890 ft | 511 kts | 206° |
| 2026-04-29 19:19 | -2.16428 | -33.25767 | 33890 ft | 511 kts | 206° |
| 2026-04-29 19:19 | -2.22710 | -33.29099 | 33894 ft | 511 kts | 207° |
| 2026-04-29 19:20 | -2.28982 | -33.32425 | 33887 ft | 511 kts | 207° |
| 2026-04-29 19:20 | -2.35266 | -33.35758 | 33887 ft | 511 kts | 207° |
| 2026-04-29 19:21 | -2.41539 | -33.39086 | 33889 ft | 510 kts | 207° |
| 2026-04-29 19:21 | -2.47814 | -33.42415 | 33884 ft | 510 kts | 207° |
| 2026-04-29 19:22 | -2.54087 | -33.45744 | 33883 ft | 510 kts | 207° |
| 2026-04-29 19:22 | -2.60354 | -33.49074 | 33888 ft | 510 kts | 208° |
| 2026-04-29 19:23 | -2.66264 | -33.52984 | 33887 ft | 511 kts | 218° |
| 2026-04-29 19:23 | -2.71595 | -33.57702 | 33892 ft | 512 kts | 221° |
| 2026-04-29 19:24 | -2.76876 | -33.62480 | 33889 ft | 512 kts | 221° |
| 2026-04-29 19:24 | -2.82174 | -33.67233 | 33889 ft | 512 kts | 220° |
| 2026-04-29 19:25 | -2.87497 | -33.71973 | 33888 ft | 512 kts | 220° |
| 2026-04-29 19:25 | -2.92823 | -33.76707 | 33890 ft | 512 kts | 220° |
| 2026-04-29 19:26 | -2.98117 | -33.81414 | 33887 ft | 513 kts | 220° |
| 2026-04-29 19:26 | -3.03453 | -33.86161 | 33886 ft | 513 kts | 220° |
| 2026-04-29 19:27 | -3.08784 | -33.90905 | 33890 ft | 513 kts | 220° |
| 2026-04-29 19:27 | -3.14116 | -33.95651 | 33890 ft | 513 kts | 220° |
| 2026-04-29 19:28 | -3.19446 | -34.00396 | 33890 ft | 513 kts | 220° |
| 2026-04-29 19:28 | -3.24779 | -34.05145 | 33890 ft | 513 kts | 220° |
| 2026-04-29 19:29 | -3.30112 | -34.09893 | 33886 ft | 513 kts | 220° |
| 2026-04-29 19:29 | -3.35443 | -34.14643 | 33887 ft | 513 kts | 220° |
| 2026-04-29 19:30 | -3.40772 | -34.19389 | 33890 ft | 513 kts | 220° |
| 2026-04-29 19:30 | -3.46098 | -34.24131 | 33889 ft | 512 kts | 220° |
| 2026-04-29 19:31 | -3.51454 | -34.28905 | 33890 ft | 512 kts | 220° |
| 2026-04-29 19:31 | -3.56774 | -34.33644 | 33889 ft | 512 kts | 220° |
| 2026-04-29 19:32 | -3.62096 | -34.38387 | 33892 ft | 512 kts | 220° |
| 2026-04-29 19:32 | -3.67417 | -34.43133 | 33889 ft | 512 kts | 220° |
| 2026-04-29 19:33 | -3.72708 | -34.47850 | 33890 ft | 513 kts | 220° |
| 2026-04-29 19:33 | -3.78073 | -34.52632 | 33893 ft | 513 kts | 220° |
| 2026-04-29 19:34 | -3.83371 | -34.57357 | 33893 ft | 514 kts | 220° |
| 2026-04-29 19:34 | -3.88705 | -34.62116 | 33894 ft | 514 kts | 221° |
| 2026-04-29 19:35 | -3.94046 | -34.66882 | 33897 ft | 514 kts | 221° |
| 2026-04-29 19:35 | -3.99386 | -34.71646 | 33890 ft | 514 kts | 220° |
| 2026-04-29 19:36 | -4.04726 | -34.76414 | 33893 ft | 514 kts | 220° |
| 2026-04-29 19:36 | -4.10059 | -34.81174 | 33890 ft | 513 kts | 220° |
| 2026-04-29 19:37 | -4.15389 | -34.85933 | 33891 ft | 513 kts | 221° |
| 2026-04-29 19:37 | -4.20707 | -34.90682 | 33892 ft | 512 kts | 221° |
| 2026-04-29 19:38 | -4.26025 | -34.95431 | 33892 ft | 512 kts | 221° |
| 2026-04-29 19:38 | -4.31341 | -35.00181 | 33894 ft | 512 kts | 221° |
| 2026-04-29 19:39 | -4.36622 | -35.04898 | 33893 ft | 512 kts | 221° |
| 2026-04-29 19:39 | -4.41938 | -35.09649 | 33892 ft | 512 kts | 221° |
| 2026-04-29 19:40 | -4.47291 | -35.14434 | 33892 ft | 512 kts | 221° |
| 2026-04-29 19:40 | -4.52611 | -35.19192 | 33891 ft | 513 kts | 221° |
| 2026-04-29 19:41 | -4.57898 | -35.23920 | 33891 ft | 513 kts | 221° |
| 2026-04-29 19:41 | -4.63226 | -35.28685 | 33890 ft | 513 kts | 221° |
| 2026-04-29 19:42 | -4.68550 | -35.33448 | 33891 ft | 513 kts | 221° |
| 2026-04-29 19:42 | -4.73879 | -35.38216 | 33891 ft | 513 kts | 221° |
| 2026-04-29 19:43 | -4.79205 | -35.42983 | 33889 ft | 513 kts | 221° |
| 2026-04-29 19:43 | -4.84526 | -35.47747 | 33885 ft | 513 kts | 221° |
| 2026-04-29 19:44 | -4.89847 | -35.52511 | 33885 ft | 513 kts | 221° |
| 2026-04-29 19:44 | -4.95169 | -35.57277 | 33887 ft | 513 kts | 221° |
| 2026-04-29 19:45 | -5.00493 | -35.62045 | 33887 ft | 513 kts | 221° |
| 2026-04-29 19:45 | -5.05809 | -35.66810 | 33888 ft | 513 kts | 221° |
| 2026-04-29 19:46 | -5.11165 | -35.71610 | 33888 ft | 513 kts | 221° |
| 2026-04-29 19:46 | -5.16485 | -35.76379 | 33885 ft | 513 kts | 221° |
| 2026-04-29 19:47 | -5.21807 | -35.81151 | 33882 ft | 513 kts | 221° |
| 2026-04-29 19:47 | -5.27125 | -35.85920 | 33888 ft | 513 kts | 221° |
| 2026-04-29 19:48 | -5.32369 | -35.90625 | 33884 ft | 512 kts | 221° |
| 2026-04-29 19:48 | -5.37677 | -35.95388 | 33879 ft | 512 kts | 221° |
| 2026-04-29 19:49 | -5.42992 | -36.00157 | 33883 ft | 512 kts | 221° |
| 2026-04-29 19:49 | -5.48293 | -36.04917 | 33885 ft | 511 kts | 221° |
| 2026-04-29 19:50 | -5.53594 | -36.09677 | 33887 ft | 511 kts | 221° |
| 2026-04-29 19:50 | -5.58895 | -36.14438 | 33883 ft | 511 kts | 220° |
| 2026-04-29 19:51 | -5.64187 | -36.19194 | 33884 ft | 511 kts | 220° |
| 2026-04-29 19:51 | -5.68579 | -36.23140 | 33886 ft | 511 kts | 220° |
| 2026-04-29 19:52 | -5.74610 | -36.28560 | 33892 ft | 511 kts | 220° |